Terminal Aerodrome Forecast
Issued by NWS Quad Cities IA IL

Home | Current Version | Previous Version | Text Only | Print | Product List | Glossary Off
Versions: 1 2 3 4 5 6 7 8 9 10 11 12 13 14 15 16 17 18 19 20

000
FTUS43 KDVN 291100
TAFMLI
TAF
KMLI 291130Z 2912/3012 18010KT P6SM SCT080
     FM300000 19007KT P6SM VCTS BKN080CB
      TEMPO 3001/3004 3SM -TSRA BR BKN035CB
     FM300400 20007KT 3SM -TSRA BR OVC025CB
     FM300700 24004KT 4SM BR VCSH OVC015=

USA.gov is the U.S. government's official web portal to all federal, state and local government web resources and services.